sensor_id;sensor_type;location;lat;lon;timestamp;P1;durP1;ratioP1;P2;durP2;ratioP2
18544;SDS011;9402;51.460;7.276;2024-02-28T00:00:24;71.50;;;28.90;;
18544;SDS011;9402;51.460;7.276;2024-02-28T00:02:25;62.75;;;25.88;;
18544;SDS011;9402;51.460;7.276;2024-02-28T00:04:28;62.17;;;27.50;;
18544;SDS011;9402;51.460;7.276;2024-02-28T00:06:29;64.78;;;27.60;;
18544;SDS011;9402;51.460;7.276;2024-02-28T00:08:31;93.13;;;29.60;;
18544;SDS011;9402;51.460;7.276;2024-02-28T00:10:32;60.20;;;27.98;;
18544;SDS011;9402;51.460;7.276;2024-02-28T00:12:34;57.05;;;25.23;;
18544;SDS011;9402;51.460;7.276;2024-02-28T00:14:35;65.32;;;24.15;;
18544;SDS011;9402;51.460;7.276;2024-02-28T00:16:39;46.67;;;21.55;;
18544;SDS011;9402;51.460;7.276;2024-02-28T00:18:41;35.42;;;20.27;;
18544;SDS011;9402;51.460;7.276;2024-02-28T00:20:45;41.08;;;20.80;;
18544;SDS011;9402;51.460;7.276;2024-02-28T00:22:46;34.67;;;19.30;;
18544;SDS011;9402;51.460;7.276;2024-02-28T00:24:48;44.08;;;22.30;;
18544;SDS011;9402;51.460;7.276;2024-02-28T00:26:49;38.92;;;20.13;;
18544;SDS011;9402;51.460;7.276;2024-02-28T00:28:51;47.35;;;20.38;;
18544;SDS011;9402;51.460;7.276;2024-02-28T00:30:53;48.15;;;21.70;;
18544;SDS011;9402;51.460;7.276;2024-02-28T00:32:55;49.35;;;22.17;;
18544;SDS011;9402;51.460;7.276;2024-02-28T00:34:56;62.28;;;24.60;;
18544;SDS011;9402;51.460;7.276;2024-02-28T00:36:59;91.15;;;27.65;;
18544;SDS011;9402;51.460;7.276;2024-02-28T00:39:01;83.47;;;26.90;;
18544;SDS011;9402;51.460;7.276;2024-02-28T00:41:04;46.65;;;24.92;;
18544;SDS011;9402;51.460;7.276;2024-02-28T00:43:05;53.00;;;24.17;;
18544;SDS011;9402;51.460;7.276;2024-02-28T00:45:08;43.92;;;23.60;;
18544;SDS011;9402;51.460;7.276;2024-02-28T00:47:10;42.40;;;23.38;;
18544;SDS011;9402;51.460;7.276;2024-02-28T00:49:12;100.85;;;27.70;;
18544;SDS011;9402;51.460;7.276;2024-02-28T00:51:13;52.90;;;24.25;;
18544;SDS011;9402;51.460;7.276;2024-02-28T00:53:15;46.20;;;22.93;;
18544;SDS011;9402;51.460;7.276;2024-02-28T00:55:17;45.30;;;23.13;;
18544;SDS011;9402;51.460;7.276;2024-02-28T00:57:19;62.00;;;24.52;;
18544;SDS011;9402;51.460;7.276;2024-02-28T00:59:20;45.05;;;23.02;;
18544;SDS011;9402;51.460;7.276;2024-02-28T01:01:21;48.20;;;23.60;;
18544;SDS011;9402;51.460;7.276;2024-02-28T01:03:22;51.40;;;22.95;;
18544;SDS011;9402;51.460;7.276;2024-02-28T01:05:24;47.30;;;23.65;;
18544;SDS011;9402;51.460;7.276;2024-02-28T01:07:25;101.53;;;31.93;;
18544;SDS011;9402;51.460;7.276;2024-02-28T01:09:27;51.88;;;25.35;;
18544;SDS011;9402;51.460;7.276;2024-02-28T01:11:29;47.83;;;24.65;;
18544;SDS011;9402;51.460;7.276;2024-02-28T01:13:31;58.17;;;25.65;;
18544;SDS011;9402;51.460;7.276;2024-02-28T01:15:32;56.97;;;25.55;;
18544;SDS011;9402;51.460;7.276;2024-02-28T01:17:33;80.37;;;29.53;;
18544;SDS011;9402;51.460;7.276;2024-02-28T01:19:34;61.78;;;27.65;;
18544;SDS011;9402;51.460;7.276;2024-02-28T01:21:36;57.60;;;27.30;;
18544;SDS011;9402;51.460;7.276;2024-02-28T01:23:38;70.45;;;28.92;;
18544;SDS011;9402;51.460;7.276;2024-02-28T01:25:40;71.50;;;29.83;;
18544;SDS011;9402;51.460;7.276;2024-02-28T01:27:41;58.92;;;27.08;;
18544;SDS011;9402;51.460;7.276;2024-02-28T01:29:43;56.13;;;27.15;;
18544;SDS011;9402;51.460;7.276;2024-02-28T01:31:45;110.05;;;34.00;;
18544;SDS011;9402;51.460;7.276;2024-02-28T01:33:46;77.28;;;32.55;;
18544;SDS011;9402;51.460;7.276;2024-02-28T01:35:48;66.07;;;29.08;;
18544;SDS011;9402;51.460;7.276;2024-02-28T01:37:50;75.70;;;29.40;;
18544;SDS011;9402;51.460;7.276;2024-02-28T01:39:52;59.20;;;29.10;;
18544;SDS011;9402;51.460;7.276;2024-02-28T01:41:55;187.38;;;38.28;;
18544;SDS011;9402;51.460;7.276;2024-02-28T01:43:57;107.20;;;30.48;;
18544;SDS011;9402;51.460;7.276;2024-02-28T01:45:59;67.78;;;29.75;;
18544;SDS011;9402;51.460;7.276;2024-02-28T01:48:02;56.58;;;27.15;;
18544;SDS011;9402;51.460;7.276;2024-02-28T01:50:05;50.65;;;24.95;;
18544;SDS011;9402;51.460;7.276;2024-02-28T01:52:07;46.10;;;24.60;;
18544;SDS011;9402;51.460;7.276;2024-02-28T01:54:09;40.60;;;21.95;;
18544;SDS011;9402;51.460;7.276;2024-02-28T01:56:10;45.65;;;22.55;;
18544;SDS011;9402;51.460;7.276;2024-02-28T01:58:13;41.47;;;22.42;;
18544;SDS011;9402;51.460;7.276;2024-02-28T02:00:15;38.42;;;21.73;;
18544;SDS011;9402;51.460;7.276;2024-02-28T02:02:18;43.15;;;21.92;;
18544;SDS011;9402;51.460;7.276;2024-02-28T02:04:19;46.58;;;23.42;;
18544;SDS011;9402;51.460;7.276;2024-02-28T02:06:21;71.55;;;25.83;;
18544;SDS011;9402;51.460;7.276;2024-02-28T02:08:23;44.70;;;24.55;;
18544;SDS011;9402;51.460;7.276;2024-02-28T02:10:25;44.45;;;23.35;;
18544;SDS011;9402;51.460;7.276;2024-02-28T02:12:26;48.25;;;23.40;;
18544;SDS011;9402;51.460;7.276;2024-02-28T02:14:29;42.10;;;24.05;;
18544;SDS011;9402;51.460;7.276;2024-02-28T02:16:31;53.95;;;25.10;;
18544;SDS011;9402;51.460;7.276;2024-02-28T02:18:32;40.10;;;22.45;;
18544;SDS011;9402;51.460;7.276;2024-02-28T02:20:34;43.35;;;24.27;;
18544;SDS011;9402;51.460;7.276;2024-02-28T02:22:41;78.05;;;26.98;;
18544;SDS011;9402;51.460;7.276;2024-02-28T02:24:42;50.28;;;25.15;;
18544;SDS011;9402;51.460;7.276;2024-02-28T02:26:44;54.30;;;24.98;;
18544;SDS011;9402;51.460;7.276;2024-02-28T02:28:46;62.30;;;26.52;;
18544;SDS011;9402;51.460;7.276;2024-02-28T02:30:48;60.13;;;28.75;;
18544;SDS011;9402;51.460;7.276;2024-02-28T02:32:48;71.53;;;28.77;;
18544;SDS011;9402;51.460;7.276;2024-02-28T02:34:50;69.93;;;30.08;;
18544;SDS011;9402;51.460;7.276;2024-02-28T02:36:50;64.90;;;29.60;;
18544;SDS011;9402;51.460;7.276;2024-02-28T02:38:53;66.82;;;29.60;;
18544;SDS011;9402;51.460;7.276;2024-02-28T02:40:55;64.78;;;28.80;;
18544;SDS011;9402;51.460;7.276;2024-02-28T02:42:57;80.13;;;30.25;;
18544;SDS011;9402;51.460;7.276;2024-02-28T02:44:58;66.35;;;28.55;;
18544;SDS011;9402;51.460;7.276;2024-02-28T02:47:00;56.00;;;27.98;;
18544;SDS011;9402;51.460;7.276;2024-02-28T02:49:01;66.97;;;30.05;;
18544;SDS011;9402;51.460;7.276;2024-02-28T02:51:03;60.50;;;27.38;;
18544;SDS011;9402;51.460;7.276;2024-02-28T02:53:07;61.22;;;29.50;;
18544;SDS011;9402;51.460;7.276;2024-02-28T02:55:11;66.82;;;27.42;;
18544;SDS011;9402;51.460;7.276;2024-02-28T02:57:12;66.32;;;29.40;;
18544;SDS011;9402;51.460;7.276;2024-02-28T02:59:14;61.05;;;28.10;;
18544;SDS011;9402;51.460;7.276;2024-02-28T03:01:15;68.90;;;31.42;;
18544;SDS011;9402;51.460;7.276;2024-02-28T03:03:16;56.93;;;26.53;;
18544;SDS011;9402;51.460;7.276;2024-02-28T03:05:17;60.60;;;29.80;;
18544;SDS011;9402;51.460;7.276;2024-02-28T03:07:18;64.23;;;29.20;;
18544;SDS011;9402;51.460;7.276;2024-02-28T03:09:20;70.05;;;30.30;;
18544;SDS011;9402;51.460;7.276;2024-02-28T03:11:22;62.00;;;28.67;;
18544;SDS011;9402;51.460;7.276;2024-02-28T03:13:24;75.45;;;32.38;;
18544;SDS011;9402;51.460;7.276;2024-02-28T03:15:26;75.55;;;32.53;;
18544;SDS011;9402;51.460;7.276;2024-02-28T03:17:26;64.87;;;29.80;;
18544;SDS011;9402;51.460;7.276;2024-02-28T03:19:28;65.90;;;30.98;;
18544;SDS011;9402;51.460;7.276;2024-02-28T03:21:30;62.60;;;28.92;;
18544;SDS011;9402;51.460;7.276;2024-02-28T03:23:31;81.47;;;32.47;;
18544;SDS011;9402;51.460;7.276;2024-02-28T03:25:36;77.80;;;32.78;;
18544;SDS011;9402;51.460;7.276;2024-02-28T03:27:38;82.50;;;33.83;;
18544;SDS011;9402;51.460;7.276;2024-02-28T03:29:39;85.93;;;34.50;;
18544;SDS011;9402;51.460;7.276;2024-02-28T03:31:41;111.32;;;41.58;;
18544;SDS011;9402;51.460;7.276;2024-02-28T03:33:42;117.40;;;43.95;;
18544;SDS011;9402;51.460;7.276;2024-02-28T03:35:43;111.97;;;44.40;;
18544;SDS011;9402;51.460;7.276;2024-02-28T03:37:45;139.48;;;49.97;;
18544;SDS011;9402;51.460;7.276;2024-02-28T03:39:46;135.30;;;48.90;;
18544;SDS011;9402;51.460;7.276;2024-02-28T03:41:48;145.23;;;50.55;;
18544;SDS011;9402;51.460;7.276;2024-02-28T03:43:51;174.13;;;55.30;;
18544;SDS011;9402;51.460;7.276;2024-02-28T03:45:53;139.07;;;50.75;;
18544;SDS011;9402;51.460;7.276;2024-02-28T03:47:54;166.30;;;51.83;;
18544;SDS011;9402;51.460;7.276;2024-02-28T03:49:55;140.80;;;51.07;;
18544;SDS011;9402;51.460;7.276;2024-02-28T03:51:57;126.18;;;47.83;;
18544;SDS011;9402;51.460;7.276;2024-02-28T03:53:59;138.63;;;49.40;;
18544;SDS011;9402;51.460;7.276;2024-02-28T03:56:00;138.93;;;49.63;;
18544;SDS011;9402;51.460;7.276;2024-02-28T03:58:03;144.05;;;50.05;;
18544;SDS011;9402;51.460;7.276;2024-02-28T04:00:09;135.65;;;47.08;;
18544;SDS011;9402;51.460;7.276;2024-02-28T04:02:12;154.05;;;54.25;;
18544;SDS011;9402;51.460;7.276;2024-02-28T04:04:13;154.70;;;54.30;;
18544;SDS011;9402;51.460;7.276;2024-02-28T04:06:14;124.57;;;48.72;;
18544;SDS011;9402;51.460;7.276;2024-02-28T04:08:15;142.87;;;51.20;;
18544;SDS011;9402;51.460;7.276;2024-02-28T04:10:16;147.10;;;51.97;;
18544;SDS011;9402;51.460;7.276;2024-02-28T04:12:17;165.57;;;54.77;;
18544;SDS011;9402;51.460;7.276;2024-02-28T04:14:19;152.75;;;53.03;;
18544;SDS011;9402;51.460;7.276;2024-02-28T04:16:22;124.50;;;49.85;;
18544;SDS011;9402;51.460;7.276;2024-02-28T04:18:24;140.23;;;51.03;;
18544;SDS011;9402;51.460;7.276;2024-02-28T04:20:25;181.63;;;54.90;;
18544;SDS011;9402;51.460;7.276;2024-02-28T04:22:26;135.30;;;49.87;;
18544;SDS011;9402;51.460;7.276;2024-02-28T04:24:27;160.18;;;54.58;;
18544;SDS011;9402;51.460;7.276;2024-02-28T04:26:29;145.68;;;53.47;;
18544;SDS011;9402;51.460;7.276;2024-02-28T04:28:31;161.13;;;59.47;;
18544;SDS011;9402;51.460;7.276;2024-02-28T04:30:32;180.75;;;57.40;;
18544;SDS011;9402;51.460;7.276;2024-02-28T04:32:35;153.57;;;55.67;;
18544;SDS011;9402;51.460;7.276;2024-02-28T04:34:38;145.38;;;53.17;;
18544;SDS011;9402;51.460;7.276;2024-02-28T04:36:39;177.57;;;56.72;;
18544;SDS011;9402;51.460;7.276;2024-02-28T04:38:41;156.73;;;56.25;;
18544;SDS011;9402;51.460;7.276;2024-02-28T04:40:43;205.35;;;61.63;;
18544;SDS011;9402;51.460;7.276;2024-02-28T04:42:44;174.00;;;58.20;;
18544;SDS011;9402;51.460;7.276;2024-02-28T04:44:45;154.30;;;56.57;;
18544;SDS011;9402;51.460;7.276;2024-02-28T04:46:46;225.43;;;63.20;;
18544;SDS011;9402;51.460;7.276;2024-02-28T04:48:49;147.68;;;53.83;;
18544;SDS011;9402;51.460;7.276;2024-02-28T04:50:51;215.02;;;62.05;;
18544;SDS011;9402;51.460;7.276;2024-02-28T04:52:51;206.93;;;62.47;;
18544;SDS011;9402;51.460;7.276;2024-02-28T04:54:53;229.30;;;63.00;;
18544;SDS011;9402;51.460;7.276;2024-02-28T04:56:55;205.38;;;59.80;;
18544;SDS011;9402;51.460;7.276;2024-02-28T04:58:56;247.88;;;66.05;;
18544;SDS011;9402;51.460;7.276;2024-02-28T05:00:58;205.07;;;61.20;;
18544;SDS011;9402;51.460;7.276;2024-02-28T05:02:59;154.60;;;56.35;;
18544;SDS011;9402;51.460;7.276;2024-02-28T05:05:03;179.95;;;56.38;;
18544;SDS011;9402;51.460;7.276;2024-02-28T05:07:05;197.45;;;59.75;;
18544;SDS011;9402;51.460;7.276;2024-02-28T05:09:07;180.60;;;58.42;;
18544;SDS011;9402;51.460;7.276;2024-02-28T05:11:09;185.35;;;61.83;;
18544;SDS011;9402;51.460;7.276;2024-02-28T05:13:10;170.45;;;59.90;;
18544;SDS011;9402;51.460;7.276;2024-02-28T05:15:12;172.88;;;63.47;;
18544;SDS011;9402;51.460;7.276;2024-02-28T05:17:14;152.70;;;58.05;;
18544;SDS011;9402;51.460;7.276;2024-02-28T05:19:16;180.23;;;60.92;;
18544;SDS011;9402;51.460;7.276;2024-02-28T05:21:20;167.43;;;58.25;;
18544;SDS011;9402;51.460;7.276;2024-02-28T05:23:21;152.38;;;58.95;;
18544;SDS011;9402;51.460;7.276;2024-02-28T05:25:23;189.52;;;65.53;;
18544;SDS011;9402;51.460;7.276;2024-02-28T05:27:24;162.00;;;61.00;;
18544;SDS011;9402;51.460;7.276;2024-02-28T05:29:26;157.63;;;58.70;;
18544;SDS011;9402;51.460;7.276;2024-02-28T05:31:28;162.73;;;60.05;;
18544;SDS011;9402;51.460;7.276;2024-02-28T05:33:29;185.00;;;60.80;;
18544;SDS011;9402;51.460;7.276;2024-02-28T05:35:30;166.07;;;60.37;;
18544;SDS011;9402;51.460;7.276;2024-02-28T05:37:33;161.73;;;60.58;;
18544;SDS011;9402;51.460;7.276;2024-02-28T05:39:35;170.90;;;64.70;;
18544;SDS011;9402;51.460;7.276;2024-02-28T05:41:37;164.07;;;61.72;;
18544;SDS011;9402;51.460;7.276;2024-02-28T05:43:39;196.43;;;64.68;;
18544;SDS011;9402;51.460;7.276;2024-02-28T05:45:41;178.18;;;62.72;;
18544;SDS011;9402;51.460;7.276;2024-02-28T05:47:43;174.18;;;61.17;;
18544;SDS011;9402;51.460;7.276;2024-02-28T05:49:44;156.68;;;59.75;;
18544;SDS011;9402;51.460;7.276;2024-02-28T05:51:46;147.25;;;57.53;;
18544;SDS011;9402;51.460;7.276;2024-02-28T05:53:49;166.40;;;61.20;;
18544;SDS011;9402;51.460;7.276;2024-02-28T05:55:51;162.63;;;60.75;;
18544;SDS011;9402;51.460;7.276;2024-02-28T05:57:53;175.85;;;62.72;;
18544;SDS011;9402;51.460;7.276;2024-02-28T05:59:55;146.73;;;60.78;;
18544;SDS011;9402;51.460;7.276;2024-02-28T06:01:56;175.88;;;58.95;;
18544;SDS011;9402;51.460;7.276;2024-02-28T06:03:58;202.02;;;64.07;;
18544;SDS011;9402;51.460;7.276;2024-02-28T06:06:00;170.40;;;63.13;;
18544;SDS011;9402;51.460;7.276;2024-02-28T06:08:00;154.50;;;57.37;;
18544;SDS011;9402;51.460;7.276;2024-02-28T06:10:04;153.80;;;61.05;;
18544;SDS011;9402;51.460;7.276;2024-02-28T06:12:06;155.43;;;60.25;;
18544;SDS011;9402;51.460;7.276;2024-02-28T06:14:08;175.32;;;66.55;;
18544;SDS011;9402;51.460;7.276;2024-02-28T06:16:13;174.68;;;66.13;;
18544;SDS011;9402;51.460;7.276;2024-02-28T06:18:14;180.88;;;65.25;;
18544;SDS011;9402;51.460;7.276;2024-02-28T06:20:15;157.20;;;63.00;;
18544;SDS011;9402;51.460;7.276;2024-02-28T06:22:18;142.40;;;58.97;;
18544;SDS011;9402;51.460;7.276;2024-02-28T06:24:19;166.02;;;60.45;;
18544;SDS011;9402;51.460;7.276;2024-02-28T06:26:22;164.18;;;59.00;;
18544;SDS011;9402;51.460;7.276;2024-02-28T06:28:24;141.73;;;57.47;;
18544;SDS011;9402;51.460;7.276;2024-02-28T06:30:25;176.48;;;65.72;;
18544;SDS011;9402;51.460;7.276;2024-02-28T06:32:27;158.80;;;62.83;;
18544;SDS011;9402;51.460;7.276;2024-02-28T06:34:28;152.95;;;59.67;;
18544;SDS011;9402;51.460;7.276;2024-02-28T06:36:30;177.05;;;62.25;;
18544;SDS011;9402;51.460;7.276;2024-02-28T06:38:32;147.63;;;61.45;;
18544;SDS011;9402;51.460;7.276;2024-02-28T06:40:34;157.60;;;60.03;;
18544;SDS011;9402;51.460;7.276;2024-02-28T06:42:37;144.27;;;60.30;;
18544;SDS011;9402;51.460;7.276;2024-02-28T06:44:39;164.05;;;61.90;;
18544;SDS011;9402;51.460;7.276;2024-02-28T06:46:41;168.75;;;61.17;;
18544;SDS011;9402;51.460;7.276;2024-02-28T06:48:42;173.77;;;60.63;;
18544;SDS011;9402;51.460;7.276;2024-02-28T06:50:43;174.95;;;60.80;;
18544;SDS011;9402;51.460;7.276;2024-02-28T06:52:45;154.48;;;59.92;;
18544;SDS011;9402;51.460;7.276;2024-02-28T06:54:46;165.13;;;59.97;;
18544;SDS011;9402;51.460;7.276;2024-02-28T06:56:48;159.07;;;61.08;;
18544;SDS011;9402;51.460;7.276;2024-02-28T06:58:51;140.88;;;55.53;;
18544;SDS011;9402;51.460;7.276;2024-02-28T07:00:52;166.00;;;59.30;;
18544;SDS011;9402;51.460;7.276;2024-02-28T07:02:53;190.33;;;63.03;;
18544;SDS011;9402;51.460;7.276;2024-02-28T07:04:55;164.55;;;59.53;;
18544;SDS011;9402;51.460;7.276;2024-02-28T07:06:56;162.90;;;61.22;;
18544;SDS011;9402;51.460;7.276;2024-02-28T07:08:58;154.85;;;60.95;;
18544;SDS011;9402;51.460;7.276;2024-02-28T07:10:59;156.35;;;60.28;;
18544;SDS011;9402;51.460;7.276;2024-02-28T07:13:01;170.23;;;65.43;;
18544;SDS011;9402;51.460;7.276;2024-02-28T07:15:03;162.20;;;60.47;;
18544;SDS011;9402;51.460;7.276;2024-02-28T07:17:06;184.55;;;61.03;;
18544;SDS011;9402;51.460;7.276;2024-02-28T07:19:08;159.65;;;62.95;;
18544;SDS011;9402;51.460;7.276;2024-02-28T07:21:09;170.43;;;64.65;;
18544;SDS011;9402;51.460;7.276;2024-02-28T07:23:11;153.25;;;60.28;;
18544;SDS011;9402;51.460;7.276;2024-02-28T07:25:13;173.05;;;59.33;;
18544;SDS011;9402;51.460;7.276;2024-02-28T07:27:13;140.27;;;59.50;;
18544;SDS011;9402;51.460;7.276;2024-02-28T07:29:15;145.45;;;55.97;;
18544;SDS011;9402;51.460;7.276;2024-02-28T07:31:18;149.48;;;60.22;;
18544;SDS011;9402;51.460;7.276;2024-02-28T07:33:20;146.55;;;58.67;;
18544;SDS011;9402;51.460;7.276;2024-02-28T07:35:22;158.48;;;63.05;;
18544;SDS011;9402;51.460;7.276;2024-02-28T07:37:24;145.57;;;59.42;;
18544;SDS011;9402;51.460;7.276;2024-02-28T07:39:25;151.77;;;58.65;;
18544;SDS011;9402;51.460;7.276;2024-02-28T07:41:27;136.73;;;55.45;;
18544;SDS011;9402;51.460;7.276;2024-02-28T07:43:28;134.43;;;58.20;;
18544;SDS011;9402;51.460;7.276;2024-02-28T07:45:32;137.10;;;56.03;;
18544;SDS011;9402;51.460;7.276;2024-02-28T07:47:35;152.50;;;59.13;;
18544;SDS011;9402;51.460;7.276;2024-02-28T07:49:38;150.32;;;59.58;;
18544;SDS011;9402;51.460;7.276;2024-02-28T07:51:39;143.10;;;57.40;;
18544;SDS011;9402;51.460;7.276;2024-02-28T07:53:41;133.57;;;57.92;;
18544;SDS011;9402;51.460;7.276;2024-02-28T07:55:43;134.68;;;55.22;;
18544;SDS011;9402;51.460;7.276;2024-02-28T07:57:45;143.10;;;56.92;;
18544;SDS011;9402;51.460;7.276;2024-02-28T07:59:46;136.73;;;55.83;;
18544;SDS011;9402;51.460;7.276;2024-02-28T08:01:48;143.82;;;54.88;;
18544;SDS011;9402;51.460;7.276;2024-02-28T08:03:50;140.07;;;56.27;;
18544;SDS011;9402;51.460;7.276;2024-02-28T08:05:52;138.73;;;55.30;;
18544;SDS011;9402;51.460;7.276;2024-02-28T08:07:53;138.35;;;55.50;;
18544;SDS011;9402;51.460;7.276;2024-02-28T08:09:55;132.85;;;55.13;;
18544;SDS011;9402;51.460;7.276;2024-02-28T08:11:57;140.10;;;57.50;;
18544;SDS011;9402;51.460;7.276;2024-02-28T08:13:59;131.25;;;53.13;;
18544;SDS011;9402;51.460;7.276;2024-02-28T08:16:00;125.00;;;54.95;;
18544;SDS011;9402;51.460;7.276;2024-02-28T08:18:01;143.83;;;56.50;;
18544;SDS011;9402;51.460;7.276;2024-02-28T08:20:04;137.85;;;54.35;;
18544;SDS011;9402;51.460;7.276;2024-02-28T08:22:06;133.43;;;53.17;;
18544;SDS011;9402;51.460;7.276;2024-02-28T08:24:08;147.13;;;55.25;;
18544;SDS011;9402;51.460;7.276;2024-02-28T08:26:10;136.95;;;57.58;;
18544;SDS011;9402;51.460;7.276;2024-02-28T08:28:12;139.48;;;59.83;;
18544;SDS011;9402;51.460;7.276;2024-02-28T08:30:12;144.00;;;54.83;;
18544;SDS011;9402;51.460;7.276;2024-02-28T08:32:14;120.32;;;51.97;;
18544;SDS011;9402;51.460;7.276;2024-02-28T08:34:16;117.97;;;52.08;;
18544;SDS011;9402;51.460;7.276;2024-02-28T08:36:19;125.25;;;50.45;;
18544;SDS011;9402;51.460;7.276;2024-02-28T08:38:19;125.22;;;51.25;;
18544;SDS011;9402;51.460;7.276;2024-02-28T08:40:21;131.55;;;52.40;;
18544;SDS011;9402;51.460;7.276;2024-02-28T08:42:23;135.27;;;51.08;;
18544;SDS011;9402;51.460;7.276;2024-02-28T08:44:24;129.05;;;53.47;;
18544;SDS011;9402;51.460;7.276;2024-02-28T08:46:25;134.48;;;56.28;;
18544;SDS011;9402;51.460;7.276;2024-02-28T08:48:27;122.50;;;51.03;;
18544;SDS011;9402;51.460;7.276;2024-02-28T08:50:28;131.55;;;54.85;;
18544;SDS011;9402;51.460;7.276;2024-02-28T08:52:31;114.07;;;49.25;;
18544;SDS011;9402;51.460;7.276;2024-02-28T08:54:33;122.68;;;50.75;;
18544;SDS011;9402;51.460;7.276;2024-02-28T08:56:35;119.45;;;50.72;;
18544;SDS011;9402;51.460;7.276;2024-02-28T08:58:36;125.15;;;51.45;;
18544;SDS011;9402;51.460;7.276;2024-02-28T09:00:38;119.38;;;51.75;;
18544;SDS011;9402;51.460;7.276;2024-02-28T09:02:40;120.15;;;51.83;;
18544;SDS011;9402;51.460;7.276;2024-02-28T09:04:42;139.95;;;53.70;;
18544;SDS011;9402;51.460;7.276;2024-02-28T09:06:43;127.78;;;53.17;;
18544;SDS011;9402;51.460;7.276;2024-02-28T09:08:46;126.47;;;52.42;;
18544;SDS011;9402;51.460;7.276;2024-02-28T09:10:47;115.95;;;52.17;;
18544;SDS011;9402;51.460;7.276;2024-02-28T09:12:48;124.50;;;50.70;;
18544;SDS011;9402;51.460;7.276;2024-02-28T09:14:50;128.45;;;53.53;;
18544;SDS011;9402;51.460;7.276;2024-02-28T09:16:56;122.35;;;52.45;;
18544;SDS011;9402;51.460;7.276;2024-02-28T09:19:03;113.03;;;48.35;;
18544;SDS011;9402;51.460;7.276;2024-02-28T09:21:07;123.68;;;50.63;;
18544;SDS011;9402;51.460;7.276;2024-02-28T09:23:10;113.13;;;50.42;;
18544;SDS011;9402;51.460;7.276;2024-02-28T09:25:16;118.22;;;49.22;;
18544;SDS011;9402;51.460;7.276;2024-02-28T09:27:21;123.03;;;49.58;;
18544;SDS011;9402;51.460;7.276;2024-02-28T09:29:24;117.00;;;50.65;;
18544;SDS011;9402;51.460;7.276;2024-02-28T09:31:26;126.78;;;52.60;;
18544;SDS011;9402;51.460;7.276;2024-02-28T09:33:27;102.93;;;48.88;;
18544;SDS011;9402;51.460;7.276;2024-02-28T09:35:29;113.13;;;49.55;;
18544;SDS011;9402;51.460;7.276;2024-02-28T09:37:30;120.30;;;51.38;;
18544;SDS011;9402;51.460;7.276;2024-02-28T09:39:32;113.72;;;51.38;;
18544;SDS011;9402;51.460;7.276;2024-02-28T09:41:35;111.82;;;50.13;;
18544;SDS011;9402;51.460;7.276;2024-02-28T09:43:37;123.35;;;54.17;;
18544;SDS011;9402;51.460;7.276;2024-02-28T09:45:41;136.60;;;55.92;;
18544;SDS011;9402;51.460;7.276;2024-02-28T09:47:43;136.75;;;54.92;;
18544;SDS011;9402;51.460;7.276;2024-02-28T09:49:45;130.93;;;55.65;;
18544;SDS011;9402;51.460;7.276;2024-02-28T09:51:48;135.90;;;57.85;;
18544;SDS011;9402;51.460;7.276;2024-02-28T09:53:51;132.05;;;54.67;;
18544;SDS011;9402;51.460;7.276;2024-02-28T09:55:52;133.95;;;52.50;;
18544;SDS011;9402;51.460;7.276;2024-02-28T09:57:55;139.00;;;55.28;;
18544;SDS011;9402;51.460;7.276;2024-02-28T09:59:56;115.65;;;51.08;;
18544;SDS011;9402;51.460;7.276;2024-02-28T10:01:59;127.03;;;52.90;;
18544;SDS011;9402;51.460;7.276;2024-02-28T10:04:01;116.40;;;50.90;;
18544;SDS011;9402;51.460;7.276;2024-02-28T10:06:03;103.20;;;46.63;;
18544;SDS011;9402;51.460;7.276;2024-02-28T10:08:05;102.93;;;48.25;;
18544;SDS011;9402;51.460;7.276;2024-02-28T10:10:09;95.00;;;44.78;;
18544;SDS011;9402;51.460;7.276;2024-02-28T10:12:10;98.10;;;45.67;;
18544;SDS011;9402;51.460;7.276;2024-02-28T10:14:16;92.55;;;43.50;;
18544;SDS011;9402;51.460;7.276;2024-02-28T10:16:18;90.40;;;43.05;;
18544;SDS011;9402;51.460;7.276;2024-02-28T10:18:20;81.05;;;40.17;;
18544;SDS011;9402;51.460;7.276;2024-02-28T10:20:21;86.22;;;37.67;;
18544;SDS011;9402;51.460;7.276;2024-02-28T10:22:23;83.45;;;38.63;;
18544;SDS011;9402;51.460;7.276;2024-02-28T10:24:26;93.10;;;43.65;;
18544;SDS011;9402;51.460;7.276;2024-02-28T10:26:27;84.25;;;41.28;;
18544;SDS011;9402;51.460;7.276;2024-02-28T10:28:30;90.32;;;44.63;;
18544;SDS011;9402;51.460;7.276;2024-02-28T10:30:33;99.45;;;45.95;;
18544;SDS011;9402;51.460;7.276;2024-02-28T10:32:47;94.63;;;44.15;;
18544;SDS011;9402;51.460;7.276;2024-02-28T10:34:49;99.10;;;44.47;;
18544;SDS011;9402;51.460;7.276;2024-02-28T10:36:51;93.43;;;44.80;;
18544;SDS011;9402;51.460;7.276;2024-02-28T10:38:53;93.82;;;42.38;;
18544;SDS011;9402;51.460;7.276;2024-02-28T10:40:55;88.03;;;43.20;;
18544;SDS011;9402;51.460;7.276;2024-02-28T10:42:56;88.43;;;42.70;;
18544;SDS011;9402;51.460;7.276;2024-02-28T10:44:59;86.40;;;42.83;;
18544;SDS011;9402;51.460;7.276;2024-02-28T10:47:04;89.15;;;43.75;;
18544;SDS011;9402;51.460;7.276;2024-02-28T10:49:07;89.95;;;44.42;;
18544;SDS011;9402;51.460;7.276;2024-02-28T10:51:09;80.75;;;40.08;;
18544;SDS011;9402;51.460;7.276;2024-02-28T10:53:12;79.70;;;40.83;;
18544;SDS011;9402;51.460;7.276;2024-02-28T10:55:15;90.25;;;42.28;;
18544;SDS011;9402;51.460;7.276;2024-02-28T10:57:19;91.07;;;40.65;;
18544;SDS011;9402;51.460;7.276;2024-02-28T10:59:21;93.15;;;43.60;;
18544;SDS011;9402;51.460;7.276;2024-02-28T11:01:24;96.07;;;43.80;;
18544;SDS011;9402;51.460;7.276;2024-02-28T11:03:27;88.13;;;42.78;;
18544;SDS011;9402;51.460;7.276;2024-02-28T11:05:35;104.97;;;43.10;;
18544;SDS011;9402;51.460;7.276;2024-02-28T11:07:40;85.82;;;42.65;;
18544;SDS011;9402;51.460;7.276;2024-02-28T11:09:42;89.75;;;42.05;;
18544;SDS011;9402;51.460;7.276;2024-02-28T11:11:43;94.47;;;43.30;;
18544;SDS011;9402;51.460;7.276;2024-02-28T11:13:51;93.03;;;43.77;;
18544;SDS011;9402;51.460;7.276;2024-02-28T11:15:53;97.28;;;43.83;;
18544;SDS011;9402;51.460;7.276;2024-02-28T11:18:06;91.40;;;41.53;;
18544;SDS011;9402;51.460;7.276;2024-02-28T11:20:13;91.47;;;42.10;;
18544;SDS011;9402;51.460;7.276;2024-02-28T11:22:17;86.80;;;40.58;;
18544;SDS011;9402;51.460;7.276;2024-02-28T11:24:22;73.45;;;39.00;;
18544;SDS011;9402;51.460;7.276;2024-02-28T11:26:25;94.55;;;39.60;;
18544;SDS011;9402;51.460;7.276;2024-02-28T11:28:27;87.53;;;41.97;;
18544;SDS011;9402;51.460;7.276;2024-02-28T11:30:29;79.03;;;39.97;;
18544;SDS011;9402;51.460;7.276;2024-02-28T11:32:31;76.88;;;38.53;;
18544;SDS011;9402;51.460;7.276;2024-02-28T11:34:33;69.45;;;36.80;;
18544;SDS011;9402;51.460;7.276;2024-02-28T11:36:36;80.57;;;39.30;;
18544;SDS011;9402;51.460;7.276;2024-02-28T11:38:39;75.93;;;37.63;;
18544;SDS011;9402;51.460;7.276;2024-02-28T11:40:47;89.10;;;39.15;;
18544;SDS011;9402;51.460;7.276;2024-02-28T11:42:50;85.97;;;38.40;;
18544;SDS011;9402;51.460;7.276;2024-02-28T11:44:54;76.28;;;38.47;;
18544;SDS011;9402;51.460;7.276;2024-02-28T11:46:57;73.65;;;37.83;;
18544;SDS011;9402;51.460;7.276;2024-02-28T11:49:00;77.22;;;39.28;;
18544;SDS011;9402;51.460;7.276;2024-02-28T11:51:02;68.60;;;37.63;;
18544;SDS011;9402;51.460;7.276;2024-02-28T11:53:05;73.82;;;37.55;;
18544;SDS011;9402;51.460;7.276;2024-02-28T11:55:07;80.90;;;39.70;;
18544;SDS011;9402;51.460;7.276;2024-02-28T11:57:09;83.00;;;39.55;;